sensor_id;sensor_type;location;lat;lon;timestamp;P1;durP1;ratioP1;P2;durP2;ratioP2
73331;SDS011;61560;33.718;73.040;2023-03-14T00:00:51;726.60;;;244.93;;
73331;SDS011;61560;33.718;73.040;2023-03-14T00:03:18;725.70;;;244.00;;
73331;SDS011;61560;33.718;73.040;2023-03-14T00:05:44;724.60;;;243.85;;
73331;SDS011;61560;33.718;73.040;2023-03-14T00:08:12;725.80;;;245.35;;
73331;SDS011;61560;33.718;73.040;2023-03-14T00:10:39;726.08;;;244.25;;
73331;SDS011;61560;33.718;73.040;2023-03-14T00:13:06;727.30;;;245.23;;
73331;SDS011;61560;33.718;73.040;2023-03-14T00:15:33;725.67;;;245.50;;
73331;SDS011;61560;33.718;73.040;2023-03-14T00:18:01;726.55;;;244.27;;
73331;SDS011;61560;33.718;73.040;2023-03-14T00:20:27;727.33;;;245.18;;
73331;SDS011;61560;33.718;73.040;2023-03-14T00:22:54;726.70;;;245.00;;
73331;SDS011;61560;33.718;73.040;2023-03-14T00:25:20;735.45;;;246.55;;
73331;SDS011;61560;33.718;73.040;2023-03-14T00:27:50;727.72;;;245.18;;
73331;SDS011;61560;33.718;73.040;2023-03-14T00:30:17;725.90;;;244.07;;
73331;SDS011;61560;33.718;73.040;2023-03-14T00:32:45;726.42;;;245.40;;
73331;SDS011;61560;33.718;73.040;2023-03-14T00:35:12;723.85;;;244.18;;
73331;SDS011;61560;33.718;73.040;2023-03-14T00:37:38;721.60;;;243.25;;
73331;SDS011;61560;33.718;73.040;2023-03-14T00:40:05;728.63;;;245.10;;
73331;SDS011;61560;33.718;73.040;2023-03-14T00:42:34;723.45;;;244.60;;
73331;SDS011;61560;33.718;73.040;2023-03-14T00:48:17;729.38;;;246.68;;
73331;SDS011;61560;33.718;73.040;2023-03-14T00:50:45;727.83;;;245.30;;
73331;SDS011;61560;33.718;73.040;2023-03-14T00:53:14;723.67;;;245.57;;
73331;SDS011;61560;33.718;73.040;2023-03-14T00:55:41;724.58;;;246.05;;
73331;SDS011;61560;33.718;73.040;2023-03-14T00:58:12;728.40;;;246.07;;
73331;SDS011;61560;33.718;73.040;2023-03-14T01:00:42;728.33;;;246.95;;
73331;SDS011;61560;33.718;73.040;2023-03-14T01:03:09;732.03;;;248.18;;
73331;SDS011;61560;33.718;73.040;2023-03-14T01:05:37;730.15;;;248.02;;
73331;SDS011;61560;33.718;73.040;2023-03-14T01:08:03;730.33;;;247.27;;
73331;SDS011;61560;33.718;73.040;2023-03-14T01:10:33;733.33;;;247.20;;
73331;SDS011;61560;33.718;73.040;2023-03-14T01:15:32;732.28;;;248.63;;
73331;SDS011;61560;33.718;73.040;2023-03-14T01:18:10;729.58;;;248.10;;
73331;SDS011;61560;33.718;73.040;2023-03-14T01:20:36;733.97;;;247.38;;
73331;SDS011;61560;33.718;73.040;2023-03-14T01:23:03;729.05;;;247.00;;
73331;SDS011;61560;33.718;73.040;2023-03-14T01:25:29;728.95;;;246.35;;
73331;SDS011;61560;33.718;73.040;2023-03-14T01:27:56;729.60;;;246.65;;
73331;SDS011;61560;33.718;73.040;2023-03-14T01:30:23;732.33;;;247.43;;
73331;SDS011;61560;33.718;73.040;2023-03-14T01:32:49;730.38;;;247.52;;
73331;SDS011;61560;33.718;73.040;2023-03-14T01:35:16;726.47;;;247.68;;
73331;SDS011;61560;33.718;73.040;2023-03-14T01:37:44;728.92;;;247.70;;
73331;SDS011;61560;33.718;73.040;2023-03-14T01:40:15;732.45;;;246.02;;
73331;SDS011;61560;33.718;73.040;2023-03-14T01:42:55;727.80;;;245.95;;
73331;SDS011;61560;33.718;73.040;2023-03-14T01:48:28;729.92;;;247.73;;
73331;SDS011;61560;33.718;73.040;2023-03-14T01:51:01;730.63;;;248.00;;
73331;SDS011;61560;33.718;73.040;2023-03-14T01:53:29;727.58;;;246.73;;
73331;SDS011;61560;33.718;73.040;2023-03-14T01:55:55;731.22;;;247.27;;
73331;SDS011;61560;33.718;73.040;2023-03-14T01:58:24;729.75;;;246.77;;
73331;SDS011;61560;33.718;73.040;2023-03-14T02:00:54;725.30;;;246.70;;
73331;SDS011;61560;33.718;73.040;2023-03-14T02:03:24;728.67;;;245.48;;
73331;SDS011;61560;33.718;73.040;2023-03-14T02:05:53;726.42;;;245.95;;
73331;SDS011;61560;33.718;73.040;2023-03-14T02:08:23;730.30;;;245.38;;
73331;SDS011;61560;33.718;73.040;2023-03-14T02:10:53;726.13;;;243.82;;
73331;SDS011;61560;33.718;73.040;2023-03-14T02:13:41;725.13;;;243.20;;
73331;SDS011;61560;33.718;73.040;2023-03-14T02:16:32;734.47;;;245.75;;
73331;SDS011;61560;33.718;73.040;2023-03-14T02:19:26;735.72;;;248.93;;
73331;SDS011;61560;33.718;73.040;2023-03-14T02:22:09;731.55;;;249.80;;
73331;SDS011;61560;33.718;73.040;2023-03-14T02:25:00;735.58;;;250.15;;
73331;SDS011;61560;33.718;73.040;2023-03-14T02:27:32;732.28;;;247.73;;
73331;SDS011;61560;33.718;73.040;2023-03-14T02:30:01;732.85;;;248.00;;
73331;SDS011;61560;33.718;73.040;2023-03-14T02:32:33;734.67;;;251.32;;
73331;SDS011;61560;33.718;73.040;2023-03-14T02:35:18;735.22;;;251.32;;
73331;SDS011;61560;33.718;73.040;2023-03-14T02:38:06;736.10;;;251.60;;
73331;SDS011;61560;33.718;73.040;2023-03-14T02:40:43;736.17;;;252.43;;
73331;SDS011;61560;33.718;73.040;2023-03-14T02:43:10;728.13;;;250.18;;
73331;SDS011;61560;33.718;73.040;2023-03-14T02:45:45;738.45;;;251.55;;
73331;SDS011;61560;33.718;73.040;2023-03-14T02:50:56;733.72;;;248.60;;
73331;SDS011;61560;33.718;73.040;2023-03-14T02:53:27;727.38;;;246.00;;
73331;SDS011;61560;33.718;73.040;2023-03-14T02:56:00;734.47;;;247.57;;
73331;SDS011;61560;33.718;73.040;2023-03-14T02:58:29;729.08;;;246.93;;
73331;SDS011;61560;33.718;73.040;2023-03-14T03:01:03;727.78;;;245.65;;
73331;SDS011;61560;33.718;73.040;2023-03-14T03:03:30;728.88;;;244.48;;
73331;SDS011;61560;33.718;73.040;2023-03-14T03:05:57;723.33;;;243.73;;
73331;SDS011;61560;33.718;73.040;2023-03-14T03:08:29;723.83;;;240.48;;
73331;SDS011;61560;33.718;73.040;2023-03-14T03:10:57;722.58;;;240.63;;
73331;SDS011;61560;33.718;73.040;2023-03-14T03:13:26;717.90;;;240.73;;
73331;SDS011;61560;33.718;73.040;2023-03-14T03:15:54;714.58;;;238.35;;
73331;SDS011;61560;33.718;73.040;2023-03-14T03:18:22;730.25;;;241.25;;
73331;SDS011;61560;33.718;73.040;2023-03-14T03:20:48;712.00;;;238.98;;
73331;SDS011;61560;33.718;73.040;2023-03-14T03:23:15;713.17;;;237.85;;
73331;SDS011;61560;33.718;73.040;2023-03-14T03:25:41;709.00;;;236.80;;
73331;SDS011;61560;33.718;73.040;2023-03-14T03:28:09;709.47;;;236.23;;
73331;SDS011;61560;33.718;73.040;2023-03-14T03:30:38;721.28;;;237.85;;
73331;SDS011;61560;33.718;73.040;2023-03-14T03:33:06;724.67;;;239.35;;
73331;SDS011;61560;33.718;73.040;2023-03-14T03:35:33;746.03;;;244.52;;
73331;SDS011;61560;33.718;73.040;2023-03-14T03:38:00;764.88;;;251.80;;
73331;SDS011;61560;33.718;73.040;2023-03-14T03:40:28;742.45;;;243.90;;
73331;SDS011;61560;33.718;73.040;2023-03-14T03:42:57;750.97;;;246.30;;
73331;SDS011;61560;33.718;73.040;2023-03-14T03:45:24;759.08;;;249.57;;
73331;SDS011;61560;33.718;73.040;2023-03-14T03:48:15;697.03;;;230.60;;
73331;SDS011;61560;33.718;73.040;2023-03-14T03:50:45;627.55;;;210.65;;
73331;SDS011;61560;33.718;73.040;2023-03-14T03:53:16;559.95;;;190.85;;
73331;SDS011;61560;33.718;73.040;2023-03-14T03:55:43;316.30;;;132.70;;
73331;SDS011;61560;33.718;73.040;2023-03-14T03:58:10;274.77;;;124.32;;
73331;SDS011;61560;33.718;73.040;2023-03-14T04:00:36;260.20;;;120.00;;
73331;SDS011;61560;33.718;73.040;2023-03-14T04:03:04;273.92;;;126.30;;
73331;SDS011;61560;33.718;73.040;2023-03-14T04:05:33;219.48;;;109.25;;
73331;SDS011;61560;33.718;73.040;2023-03-14T04:08:05;231.82;;;115.03;;
73331;SDS011;61560;33.718;73.040;2023-03-14T04:10:35;228.50;;;111.22;;
73331;SDS011;61560;33.718;73.040;2023-03-14T04:13:18;216.20;;;103.05;;
73331;SDS011;61560;33.718;73.040;2023-03-14T04:15:50;160.25;;;66.95;;
73331;SDS011;61560;33.718;73.040;2023-03-14T04:18:22;128.05;;;48.53;;
73331;SDS011;61560;33.718;73.040;2023-03-14T04:20:56;188.80;;;54.50;;
73331;SDS011;61560;33.718;73.040;2023-03-14T04:23:37;102.97;;;43.13;;
73331;SDS011;61560;33.718;73.040;2023-03-14T04:26:04;88.72;;;36.75;;
73331;SDS011;61560;33.718;73.040;2023-03-14T04:28:31;77.53;;;35.97;;
73331;SDS011;61560;33.718;73.040;2023-03-14T04:30:58;61.08;;;29.25;;
73331;SDS011;61560;33.718;73.040;2023-03-14T04:33:26;83.60;;;39.03;;
73331;SDS011;61560;33.718;73.040;2023-03-14T04:35:55;83.78;;;38.42;;
73331;SDS011;61560;33.718;73.040;2023-03-14T04:38:22;78.90;;;37.95;;
73331;SDS011;61560;33.718;73.040;2023-03-14T04:40:50;55.60;;;27.20;;
73331;SDS011;61560;33.718;73.040;2023-03-14T04:43:18;54.55;;;24.65;;
73331;SDS011;61560;33.718;73.040;2023-03-14T04:45:53;49.88;;;23.50;;
73331;SDS011;61560;33.718;73.040;2023-03-14T04:48:20;50.20;;;24.30;;
73331;SDS011;61560;33.718;73.040;2023-03-14T04:50:48;50.45;;;22.10;;
73331;SDS011;61560;33.718;73.040;2023-03-14T04:53:16;54.10;;;23.73;;
73331;SDS011;61560;33.718;73.040;2023-03-14T04:55:54;52.67;;;24.02;;
73331;SDS011;61560;33.718;73.040;2023-03-14T04:58:23;49.75;;;26.60;;
73331;SDS011;61560;33.718;73.040;2023-03-14T05:00:52;58.92;;;27.10;;
73331;SDS011;61560;33.718;73.040;2023-03-14T05:03:37;60.63;;;28.33;;
73331;SDS011;61560;33.718;73.040;2023-03-14T05:06:10;64.75;;;30.48;;
73331;SDS011;61560;33.718;73.040;2023-03-14T05:08:59;66.17;;;32.23;;
73331;SDS011;61560;33.718;73.040;2023-03-14T05:11:35;70.30;;;30.23;;
73331;SDS011;61560;33.718;73.040;2023-03-14T05:14:25;75.50;;;34.88;;
73331;SDS011;61560;33.718;73.040;2023-03-14T05:16:54;90.80;;;39.40;;
73331;SDS011;61560;33.718;73.040;2023-03-14T05:19:47;79.75;;;35.75;;
73331;SDS011;61560;33.718;73.040;2023-03-14T05:22:33;72.10;;;32.08;;
73331;SDS011;61560;33.718;73.040;2023-03-14T05:25:19;76.30;;;35.65;;
73331;SDS011;61560;33.718;73.040;2023-03-14T05:27:55;79.78;;;35.33;;
73331;SDS011;61560;33.718;73.040;2023-03-14T05:30:45;54.75;;;26.42;;
73331;SDS011;61560;33.718;73.040;2023-03-14T05:33:21;70.30;;;29.63;;
73331;SDS011;61560;33.718;73.040;2023-03-14T05:36:02;63.70;;;28.65;;
73331;SDS011;61560;33.718;73.040;2023-03-14T05:38:36;59.10;;;29.63;;
73331;SDS011;61560;33.718;73.040;2023-03-14T05:41:15;58.80;;;28.98;;
73331;SDS011;61560;33.718;73.040;2023-03-14T05:44:11;57.45;;;27.98;;
73331;SDS011;61560;33.718;73.040;2023-03-14T05:47:03;61.88;;;29.40;;
73331;SDS011;61560;33.718;73.040;2023-03-14T05:49:41;63.55;;;31.30;;
73331;SDS011;61560;33.718;73.040;2023-03-14T05:52:26;49.83;;;26.15;;
73331;SDS011;61560;33.718;73.040;2023-03-14T05:55:01;77.80;;;35.95;;
73331;SDS011;61560;33.718;73.040;2023-03-14T05:57:49;84.15;;;40.15;;
73331;SDS011;61560;33.718;73.040;2023-03-14T06:00:33;80.43;;;41.00;;
73331;SDS011;61560;33.718;73.040;2023-03-14T06:03:17;122.35;;;61.60;;
73331;SDS011;61560;33.718;73.040;2023-03-14T06:05:49;119.82;;;62.58;;
73331;SDS011;61560;33.718;73.040;2023-03-14T06:08:19;147.80;;;79.88;;
73331;SDS011;61560;33.718;73.040;2023-03-14T06:10:56;181.30;;;94.32;;
73331;SDS011;61560;33.718;73.040;2023-03-14T06:13:46;186.02;;;96.38;;
73331;SDS011;61560;33.718;73.040;2023-03-14T06:16:13;211.63;;;104.20;;
73331;SDS011;61560;33.718;73.040;2023-03-14T06:18:40;208.98;;;104.68;;
73331;SDS011;61560;33.718;73.040;2023-03-14T06:21:09;186.02;;;98.38;;
73331;SDS011;61560;33.718;73.040;2023-03-14T06:23:37;219.02;;;106.35;;
73331;SDS011;61560;33.718;73.040;2023-03-14T06:26:05;234.02;;;112.78;;
73331;SDS011;61560;33.718;73.040;2023-03-14T06:28:32;247.32;;;114.82;;
73331;SDS011;61560;33.718;73.040;2023-03-14T06:31:01;264.10;;;116.32;;
73331;SDS011;61560;33.718;73.040;2023-03-14T06:33:33;263.65;;;117.35;;
73331;SDS011;61560;33.718;73.040;2023-03-14T06:36:01;254.73;;;117.57;;
73331;SDS011;61560;33.718;73.040;2023-03-14T06:38:28;278.27;;;121.32;;
73331;SDS011;61560;33.718;73.040;2023-03-14T06:41:02;292.55;;;124.50;;
73331;SDS011;61560;33.718;73.040;2023-03-14T06:43:38;274.45;;;121.97;;
73331;SDS011;61560;33.718;73.040;2023-03-14T06:46:07;288.48;;;123.65;;
73331;SDS011;61560;33.718;73.040;2023-03-14T06:48:35;320.58;;;128.38;;
73331;SDS011;61560;33.718;73.040;2023-03-14T06:51:02;321.55;;;130.70;;
73331;SDS011;61560;33.718;73.040;2023-03-14T06:53:29;313.83;;;128.88;;
73331;SDS011;61560;33.718;73.040;2023-03-14T06:55:59;319.05;;;130.60;;
73331;SDS011;61560;33.718;73.040;2023-03-14T06:58:27;357.45;;;137.32;;
73331;SDS011;61560;33.718;73.040;2023-03-14T07:00:54;358.88;;;138.43;;
73331;SDS011;61560;33.718;73.040;2023-03-14T07:03:26;384.10;;;143.52;;
73331;SDS011;61560;33.718;73.040;2023-03-14T07:05:54;378.42;;;140.95;;
73331;SDS011;61560;33.718;73.040;2023-03-14T07:08:21;388.88;;;143.50;;
73331;SDS011;61560;33.718;73.040;2023-03-14T07:10:48;388.38;;;142.18;;
73331;SDS011;61560;33.718;73.040;2023-03-14T07:13:17;393.80;;;143.55;;
73331;SDS011;61560;33.718;73.040;2023-03-14T07:15:50;387.95;;;142.57;;
73331;SDS011;61560;33.718;73.040;2023-03-14T07:18:17;387.48;;;142.02;;
73331;SDS011;61560;33.718;73.040;2023-03-14T07:20:44;368.58;;;138.38;;
73331;SDS011;61560;33.718;73.040;2023-03-14T07:23:13;365.20;;;138.38;;
73331;SDS011;61560;33.718;73.040;2023-03-14T07:25:45;363.35;;;137.38;;
73331;SDS011;61560;33.718;73.040;2023-03-14T07:28:14;377.23;;;141.13;;
73331;SDS011;61560;33.718;73.040;2023-03-14T07:30:42;356.88;;;135.88;;
73331;SDS011;61560;33.718;73.040;2023-03-14T07:33:16;357.95;;;136.25;;
73331;SDS011;61560;33.718;73.040;2023-03-14T07:35:44;351.83;;;135.18;;
73331;SDS011;61560;33.718;73.040;2023-03-14T07:38:12;370.38;;;138.32;;
73331;SDS011;61560;33.718;73.040;2023-03-14T07:41:02;375.65;;;139.57;;
73331;SDS011;61560;33.718;73.040;2023-03-14T07:43:34;366.42;;;137.52;;
73331;SDS011;61560;33.718;73.040;2023-03-14T07:46:00;381.35;;;140.13;;
73331;SDS011;61560;33.718;73.040;2023-03-14T07:48:27;369.38;;;138.30;;
73331;SDS011;61560;33.718;73.040;2023-03-14T07:50:55;349.60;;;134.25;;
73331;SDS011;61560;33.718;73.040;2023-03-14T07:53:22;366.48;;;137.35;;
73331;SDS011;61560;33.718;73.040;2023-03-14T07:55:53;355.45;;;135.90;;
73331;SDS011;61560;33.718;73.040;2023-03-14T07:58:20;355.25;;;135.90;;
73331;SDS011;61560;33.718;73.040;2023-03-14T08:00:50;375.05;;;139.38;;
73331;SDS011;61560;33.718;73.040;2023-03-14T08:03:17;378.65;;;140.07;;
73331;SDS011;61560;33.718;73.040;2023-03-14T08:05:48;360.98;;;138.02;;
73331;SDS011;61560;33.718;73.040;2023-03-14T08:08:17;359.05;;;136.98;;
73331;SDS011;61560;33.718;73.040;2023-03-14T08:10:44;384.20;;;141.02;;
73331;SDS011;61560;33.718;73.040;2023-03-14T08:13:13;373.38;;;139.20;;
73331;SDS011;61560;33.718;73.040;2023-03-14T08:15:39;373.92;;;139.05;;
73331;SDS011;61560;33.718;73.040;2023-03-14T08:18:06;374.50;;;138.80;;
73331;SDS011;61560;33.718;73.040;2023-03-14T08:20:33;383.90;;;140.82;;
73331;SDS011;61560;33.718;73.040;2023-03-14T08:23:00;369.95;;;137.68;;
73331;SDS011;61560;33.718;73.040;2023-03-14T08:25:27;356.33;;;135.38;;
73331;SDS011;61560;33.718;73.040;2023-03-14T08:27:54;366.40;;;137.77;;
73331;SDS011;61560;33.718;73.040;2023-03-14T08:30:21;374.70;;;138.93;;
73331;SDS011;61560;33.718;73.040;2023-03-14T08:32:48;377.00;;;139.63;;
73331;SDS011;61560;33.718;73.040;2023-03-14T08:35:15;377.63;;;139.07;;
73331;SDS011;61560;33.718;73.040;2023-03-14T08:37:42;379.98;;;140.02;;
73331;SDS011;61560;33.718;73.040;2023-03-14T08:40:09;376.08;;;139.32;;
73331;SDS011;61560;33.718;73.040;2023-03-14T08:42:37;382.77;;;141.00;;
73331;SDS011;61560;33.718;73.040;2023-03-14T08:45:06;398.02;;;144.18;;
73331;SDS011;61560;33.718;73.040;2023-03-14T08:47:34;401.10;;;144.15;;
73331;SDS011;61560;33.718;73.040;2023-03-14T08:50:01;753.47;;;239.90;;
73331;SDS011;61560;33.718;73.040;2023-03-14T08:52:30;795.75;;;250.95;;
73331;SDS011;61560;33.718;73.040;2023-03-14T08:54:57;782.65;;;248.43;;
73331;SDS011;61560;33.718;73.040;2023-03-14T08:57:24;794.25;;;251.65;;
73331;SDS011;61560;33.718;73.040;2023-03-14T08:59:54;804.90;;;254.30;;
73331;SDS011;61560;33.718;73.040;2023-03-14T09:02:23;835.63;;;263.42;;
73331;SDS011;61560;33.718;73.040;2023-03-14T09:04:50;842.17;;;265.38;;
73331;SDS011;61560;33.718;73.040;2023-03-14T09:07:18;778.80;;;247.65;;
73331;SDS011;61560;33.718;73.040;2023-03-14T09:09:45;781.47;;;248.77;;
73331;SDS011;61560;33.718;73.040;2023-03-14T09:12:12;809.22;;;256.08;;
73331;SDS011;61560;33.718;73.040;2023-03-14T09:14:39;810.08;;;256.58;;
73331;SDS011;61560;33.718;73.040;2023-03-14T09:17:06;842.85;;;265.40;;
73331;SDS011;61560;33.718;73.040;2023-03-14T09:19:33;834.70;;;262.77;;
73331;SDS011;61560;33.718;73.040;2023-03-14T09:22:00;841.80;;;265.77;;
73331;SDS011;61560;33.718;73.040;2023-03-14T09:24:26;864.80;;;272.67;;
73331;SDS011;61560;33.718;73.040;2023-03-14T09:26:54;862.00;;;271.92;;
73331;SDS011;61560;33.718;73.040;2023-03-14T09:29:22;884.28;;;276.95;;
73331;SDS011;61560;33.718;73.040;2023-03-14T09:31:50;875.55;;;276.15;;
73331;SDS011;61560;33.718;73.040;2023-03-14T09:34:17;874.35;;;274.33;;
73331;SDS011;61560;33.718;73.040;2023-03-14T09:36:45;913.47;;;285.88;;
73331;SDS011;61560;33.718;73.040;2023-03-14T09:39:12;968.97;;;299.63;;
73331;SDS011;61560;33.718;73.040;2023-03-14T09:41:43;977.10;;;300.67;;
73331;SDS011;61560;33.718;73.040;2023-03-14T09:47:01;1022.88;;;311.38;;
73331;SDS011;61560;33.718;73.040;2023-03-14T09:49:33;799.35;;;253.68;;
73331;SDS011;61560;33.718;73.040;2023-03-14T09:52:05;1048.07;;;317.77;;
73331;SDS011;61560;33.718;73.040;2023-03-14T09:54:54;820.92;;;255.95;;
73331;SDS011;61560;33.718;73.040;2023-03-14T09:57:28;787.13;;;249.95;;
73331;SDS011;61560;33.718;73.040;2023-03-14T09:59:56;959.92;;;294.88;;
73331;SDS011;61560;33.718;73.040;2023-03-14T10:02:34;698.35;;;226.35;;
73331;SDS011;61560;33.718;73.040;2023-03-14T10:05:01;951.15;;;292.25;;
73331;SDS011;61560;33.718;73.040;2023-03-14T10:07:34;790.47;;;246.68;;
73331;SDS011;61560;33.718;73.040;2023-03-14T10:10:08;1163.13;;;338.42;;
73331;SDS011;61560;33.718;73.040;2023-03-14T10:12:44;1053.65;;;313.45;;
73331;SDS011;61560;33.718;73.040;2023-03-14T10:15:13;876.72;;;267.40;;
73331;SDS011;61560;33.718;73.040;2023-03-14T10:17:50;965.50;;;292.20;;
73331;SDS011;61560;33.718;73.040;2023-03-14T10:20:31;1030.22;;;308.15;;
73331;SDS011;61560;33.718;73.040;2023-03-14T10:23:00;1190.57;;;353.60;;
73331;SDS011;61560;33.718;73.040;2023-03-14T10:25:33;1149.18;;;338.75;;
73331;SDS011;61560;33.718;73.040;2023-03-14T10:28:02;864.08;;;271.90;;
73331;SDS011;61560;33.718;73.040;2023-03-14T10:30:47;962.88;;;293.48;;
73331;SDS011;61560;33.718;73.040;2023-03-14T10:33:36;1080.65;;;323.85;;
73331;SDS011;61560;33.718;73.040;2023-03-14T10:36:06;846.15;;;265.08;;
73331;SDS011;61560;33.718;73.040;2023-03-14T10:38:45;946.55;;;291.02;;
73331;SDS011;61560;33.718;73.040;2023-03-14T10:41:24;911.35;;;283.20;;
73331;SDS011;61560;33.718;73.040;2023-03-14T10:43:59;965.80;;;295.30;;
73331;SDS011;61560;33.718;73.040;2023-03-14T10:46:29;1253.32;;;361.75;;
73331;SDS011;61560;33.718;73.040;2023-03-14T10:49:26;975.10;;;296.17;;
73331;SDS011;61560;33.718;73.040;2023-03-14T10:52:00;842.08;;;259.02;;
73331;SDS011;61560;33.718;73.040;2023-03-14T10:54:30;905.22;;;275.35;;
73331;SDS011;61560;33.718;73.040;2023-03-14T10:56:58;1098.50;;;328.25;;
73331;SDS011;61560;33.718;73.040;2023-03-14T10:59:33;906.60;;;275.10;;
73331;SDS011;61560;33.718;73.040;2023-03-14T11:02:07;997.72;;;308.40;;
73331;SDS011;61560;33.718;73.040;2023-03-14T11:26:46;723.70;;;232.27;;
73331;SDS011;61560;33.718;73.040;2023-03-14T11:40:46;928.70;;;262.17;;
73331;SDS011;61560;33.718;73.040;2023-03-14T11:43:24;957.15;;;277.33;;
73331;SDS011;61560;33.718;73.040;2023-03-14T11:45:56;1127.82;;;313.88;;
73331;SDS011;61560;33.718;73.040;2023-03-14T11:54:04;1193.55;;;331.20;;
73331;SDS011;61560;33.718;73.040;2023-03-14T11:56:54;891.10;;;250.85;;
73331;SDS011;61560;33.718;73.040;2023-03-14T12:02:00;987.60;;;282.30;;
73331;SDS011;61560;33.718;73.040;2023-03-14T12:04:43;995.92;;;274.30;;
73331;SDS011;61560;33.718;73.040;2023-03-14T12:07:39;1020.42;;;279.45;;
73331;SDS011;61560;33.718;73.040;2023-03-14T12:10:09;1116.65;;;305.73;;
73331;SDS011;61560;33.718;73.040;2023-03-14T12:12:36;579.97;;;184.35;;
73331;SDS011;61560;33.718;73.040;2023-03-14T12:15:04;984.95;;;295.33;;
73331;SDS011;61560;33.718;73.040;2023-03-14T12:17:39;845.85;;;264.42;;
73331;SDS011;61560;33.718;73.040;2023-03-14T12:20:16;706.28;;;225.77;;
73331;SDS011;61560;33.718;73.040;2023-03-14T12:22:49;695.63;;;221.50;;
73331;SDS011;61560;33.718;73.040;2023-03-14T12:25:21;693.95;;;221.75;;
73331;SDS011;61560;33.718;73.040;2023-03-14T12:35:36;718.65;;;228.48;;
73331;SDS011;61560;33.718;73.040;2023-03-14T12:38:13;714.05;;;225.82;;
73331;SDS011;61560;33.718;73.040;2023-03-14T12:47:14;732.83;;;233.40;;
73331;SDS011;61560;33.718;73.040;2023-03-14T12:50:13;738.10;;;234.32;;
73331;SDS011;61560;33.718;73.040;2023-03-14T12:52:51;744.85;;;236.45;;
73331;SDS011;61560;33.718;73.040;2023-03-14T12:55:21;751.97;;;238.23;;
73331;SDS011;61560;33.718;73.040;2023-03-14T14:03:04;874.63;;;275.95;;
73331;SDS011;61560;33.718;73.040;2023-03-14T14:05:38;844.72;;;267.23;;
73331;SDS011;61560;33.718;73.040;2023-03-14T14:08:09;852.40;;;269.52;;
73331;SDS011;61560;33.718;73.040;2023-03-14T14:10:38;859.92;;;270.73;;
73331;SDS011;61560;33.718;73.040;2023-03-14T14:13:06;868.30;;;274.05;;
73331;SDS011;61560;33.718;73.040;2023-03-14T14:15:38;871.53;;;274.50;;
73331;SDS011;61560;33.718;73.040;2023-03-14T14:18:11;879.40;;;276.92;;
73331;SDS011;61560;33.718;73.040;2023-03-14T14:20:43;870.28;;;274.52;;
73331;SDS011;61560;33.718;73.040;2023-03-14T14:23:11;861.45;;;273.85;;
73331;SDS011;61560;33.718;73.040;2023-03-14T14:25:42;863.50;;;273.38;;
73331;SDS011;61560;33.718;73.040;2023-03-14T14:28:17;854.80;;;270.95;;
73331;SDS011;61560;33.718;73.040;2023-03-14T14:33:57;848.10;;;269.00;;
73331;SDS011;61560;33.718;73.040;2023-03-14T14:39:09;842.22;;;267.70;;
73331;SDS011;61560;33.718;73.040;2023-03-14T14:41:47;844.10;;;267.15;;
73331;SDS011;61560;33.718;73.040;2023-03-14T14:44:21;848.08;;;268.42;;
73331;SDS011;61560;33.718;73.040;2023-03-14T14:46:55;851.83;;;269.48;;
73331;SDS011;61560;33.718;73.040;2023-03-14T14:49:28;843.53;;;267.67;;
73331;SDS011;61560;33.718;73.040;2023-03-14T14:52:04;843.58;;;267.25;;
73331;SDS011;61560;33.718;73.040;2023-03-14T14:54:40;851.97;;;269.88;;
73331;SDS011;61560;33.718;73.040;2023-03-14T14:57:30;851.00;;;268.75;;
73331;SDS011;61560;33.718;73.040;2023-03-14T15:00:05;839.30;;;267.45;;
73331;SDS011;61560;33.718;73.040;2023-03-14T15:02:44;843.35;;;267.20;;
73331;SDS011;61560;33.718;73.040;2023-03-14T15:05:18;834.72;;;265.70;;
73331;SDS011;61560;33.718;73.040;2023-03-14T15:07:49;831.75;;;264.30;;
73331;SDS011;61560;33.718;73.040;2023-03-14T15:10:16;823.65;;;261.88;;
73331;SDS011;61560;33.718;73.040;2023-03-14T15:12:45;826.75;;;263.48;;
73331;SDS011;61560;33.718;73.040;2023-03-14T15:15:17;824.45;;;260.65;;
73331;SDS011;61560;33.718;73.040;2023-03-14T15:17:46;825.10;;;262.38;;
73331;SDS011;61560;33.718;73.040;2023-03-14T15:20:14;825.83;;;262.33;;
73331;SDS011;61560;33.718;73.040;2023-03-14T15:22:44;823.97;;;261.33;;
73331;SDS011;61560;33.718;73.040;2023-03-14T15:25:11;828.10;;;263.27;;
73331;SDS011;61560;33.718;73.040;2023-03-14T15:27:38;825.58;;;262.15;;
73331;SDS011;61560;33.718;73.040;2023-03-14T15:30:17;829.42;;;263.55;;
73331;SDS011;61560;33.718;73.040;2023-03-14T15:32:45;836.92;;;265.48;;
73331;SDS011;61560;33.718;73.040;2023-03-14T15:35:11;833.50;;;264.83;;
73331;SDS011;61560;33.718;73.040;2023-03-14T15:37:40;835.75;;;265.90;;
73331;SDS011;61560;33.718;73.040;2023-03-14T15:40:09;837.80;;;267.40;;
73331;SDS011;61560;33.718;73.040;2023-03-14T15:42:40;840.70;;;267.00;;
73331;SDS011;61560;33.718;73.040;2023-03-14T15:45:07;841.33;;;267.48;;
73331;SDS011;61560;33.718;73.040;2023-03-14T15:47:34;844.10;;;268.98;;
73331;SDS011;61560;33.718;73.040;2023-03-14T15:50:01;834.13;;;265.40;;
73331;SDS011;61560;33.718;73.040;2023-03-14T15:52:28;829.47;;;264.55;;
73331;SDS011;61560;33.718;73.040;2023-03-14T15:54:55;831.33;;;263.65;;
73331;SDS011;61560;33.718;73.040;2023-03-14T15:57:22;838.20;;;266.90;;
73331;SDS011;61560;33.718;73.040;2023-03-14T15:59:48;843.10;;;268.90;;
73331;SDS011;61560;33.718;73.040;2023-03-14T16:02:17;840.50;;;267.02;;
73331;SDS011;61560;33.718;73.040;2023-03-14T16:04:43;845.50;;;267.52;;
73331;SDS011;61560;33.718;73.040;2023-03-14T16:07:10;847.42;;;266.58;;
73331;SDS011;61560;33.718;73.040;2023-03-14T16:09:36;846.58;;;268.67;;
73331;SDS011;61560;33.718;73.040;2023-03-14T16:12:08;840.10;;;266.08;;
73331;SDS011;61560;33.718;73.040;2023-03-14T16:14:52;838.08;;;265.50;;
73331;SDS011;61560;33.718;73.040;2023-03-14T16:17:18;836.70;;;264.98;;
73331;SDS011;61560;33.718;73.040;2023-03-14T16:19:45;834.33;;;264.70;;
73331;SDS011;61560;33.718;73.040;2023-03-14T16:22:12;832.33;;;262.90;;
73331;SDS011;61560;33.718;73.040;2023-03-14T16:24:38;830.70;;;264.58;;
73331;SDS011;61560;33.718;73.040;2023-03-14T16:27:05;835.72;;;265.58;;
73331;SDS011;61560;33.718;73.040;2023-03-14T16:29:31;842.13;;;266.55;;
73331;SDS011;61560;33.718;73.040;2023-03-14T16:31:58;837.38;;;266.90;;